Mansehra Weather



Mansehra's Current Weather

Temprature 21.54o broken clouds

broken clouds

Rain: 0 %

Min Temprature21.54o
Max Temprature21.54o
Humidity38
Wind Speed0.57 m/h
Sun Rise04:59:49
Sun Set19:08:31
Current Time: 24-May-2022 07:38:08
Lat/Lon: 34.3333, 73.2




Mansehra's Geo Location



Mansehra's Weather Forecast

Time Overall Temp Min Temp Max Temp Humidity Wind Speed Rain
24-May-2022 (Tue)
08:00:00 broken clouds 21.540 21.540 21.540 38 0.57 m/h 0 %
11:00:00 broken clouds 22.910 22.910 25.660 35 2.09 m/h 0 %
14:00:00 scattered clouds 25.990 25.990 28.220 29 3.54 m/h 0 %
17:00:00 clear sky 27.050 27.050 27.050 27 3.61 m/h 0 %
20:00:00 scattered clouds 22.130 22.130 22.130 37 0.68 m/h 0 %
23:00:00 few clouds 19.690 19.690 19.690 42 2.01 m/h 0 %
25-May-2022 (Wed)
02:00:00 clear sky 18.550 18.550 18.550 45 2.21 m/h 0 %
05:00:00 clear sky 17.720 17.720 17.720 46 2.16 m/h 0 %
08:00:00 clear sky 25.230 25.230 25.230 32 0.93 m/h 0 %
11:00:00 clear sky 29.970 29.970 29.970 24 2.15 m/h 0 %
14:00:00 clear sky 32.030 32.030 32.030 20 3.53 m/h 0 %
17:00:00 clear sky 31.450 31.450 31.450 20 3.64 m/h 0 %
20:00:00 clear sky 24.610 24.610 24.610 30 0.97 m/h 0 %
23:00:00 clear sky 22.920 22.920 22.920 33 2.28 m/h 0 %
26-May-2022 (Thu)
02:00:00 clear sky 21.540 21.540 21.540 37 2.3 m/h 0 %
05:00:00 clear sky 20.650 20.650 20.650 37 2.49 m/h 0 %
08:00:00 clear sky 28.670 28.670 28.670 25 1.17 m/h 0 %
11:00:00 clear sky 33.540 33.540 33.540 18 2.37 m/h 0 %
14:00:00 clear sky 35.400 35.400 35.400 16 4.17 m/h 0 %
17:00:00 clear sky 34.060 34.060 34.060 17 0.56 m/h 0 %
20:00:00 clear sky 26.710 26.710 26.710 28 1.55 m/h 0 %
23:00:00 clear sky 24.530 24.530 24.530 33 2.68 m/h 0 %
27-May-2022 (Fri)
02:00:00 clear sky 23.130 23.130 23.130 35 2.62 m/h 0 %
05:00:00 clear sky 22.520 22.520 22.520 33 2.89 m/h 0 %
08:00:00 clear sky 31.180 31.180 31.180 21 1.56 m/h 0 %
11:00:00 clear sky 36.160 36.160 36.160 13 3.3 m/h 0 %
14:00:00 clear sky 37.750 37.750 37.750 11 5.23 m/h 0 %
17:00:00 clear sky 36.660 36.660 36.660 11 4.58 m/h 0 %
20:00:00 clear sky 28.520 28.520 28.520 18 1.33 m/h 0 %
23:00:00 clear sky 25.660 25.660 25.660 25 3.14 m/h 0 %
28-May-2022 (Sat)
02:00:00 clear sky 24.070 24.070 24.070 27 3.25 m/h 0 %
05:00:00 clear sky 23.250 23.250 23.250 31 2.92 m/h 0 %
08:00:00 light rain 30.860 30.860 30.860 23 1 m/h 21 %
11:00:00 broken clouds 36.150 36.150 36.150 15 1.99 m/h 0 %
14:00:00 overcast clouds 29.730 29.730 29.730 30 4.81 m/h 0 %
17:00:00 light rain 27.270 27.270 27.270 39 5.59 m/h 13 %
20:00:00 broken clouds 22.390 22.390 22.390 53 3.81 m/h 0 %
23:00:00 broken clouds 22.960 22.960 22.960 48 4.28 m/h 0 %
29-May-2022 (Sun)
02:00:00 overcast clouds 21.090 21.090 21.090 49 3.75 m/h 0 %
05:00:00 overcast clouds 20.350 20.350 20.350 50 3.51 m/h 0 %

Famous Cities (61)